Time;durP1;ratioP1;P1;durP2;ratioP2;P2;SDS_P1;SDS_P2;PMS_P1;PMS_P2;Temp;Humidity;BMP_temperature;BMP_pressure;BME280_temperature;BME280_humidity;BME280_pressure;Samples;Min_cycle;Max_cycle;Signal;HPM_P1;HPM_P2
2022/04/17 00:00:28;;;;;;;;;;;;;;;0.61;60.63;101918.52;84547;1328;22557;-76
2022/04/17 00:02:45;;;;;;;;;;;;;;;0.55;60.80;101915.77;84494;1336;22596;-72
2022/04/17 00:04:53;;;;;;;;;;;;;;;0.49;61.00;101917.84;84507;1331;22633;-71
2022/04/17 00:07:00;;;;;;;;;;;;;;;0.44;61.47;101917.70;84454;1336;22587;-73
2022/04/17 00:09:08;;;;;;;;;;;;;;;0.38;61.84;101914.44;84460;1331;24293;-73
2022/04/17 00:11:18;;;;;;;;;;;;;;;0.31;61.68;101915.95;84523;1328;22844;-73
2022/04/17 00:13:25;;;;;;;;;;;;;;;0.24;62.59;101916.45;84567;1332;22574;-75
2022/04/17 00:15:32;;;;;;;;;;;;;;;0.17;62.68;101914.19;84536;1332;22718;-75
2022/04/17 00:17:42;;;;;;;;;;;;;;;0.13;62.51;101916.30;84604;1333;22811;-74
2022/04/17 00:19:49;;;;;;;;;;;;;;;0.09;62.64;101912.73;84569;1333;22564;-72
2022/04/17 00:21:57;;;;;;;;;;;;;;;0.05;63.18;101910.40;83879;1334;1003712;-71
2022/04/17 00:24:04;;;;;;;;;;;;;;;-0.01;63.12;101907.15;83852;1335;1003688;-74
2022/04/17 00:26:11;;;;;;;;;;;;;;;-0.06;63.64;101910.59;84540;1332;24253;-77
2022/04/17 00:28:19;;;;;;;;;;;;;;;-0.10;63.60;101909.95;84568;1331;25931;-74
2022/04/17 00:30:26;;;;;;;;;;;;;;;-0.14;63.71;101902.27;84560;1332;22577;-74
2022/04/17 00:32:33;;;;;;;;;;;;;;;-0.18;63.97;101906.95;84577;1332;22564;-74
2022/04/17 00:34:41;;;;;;;;;;;;;;;-0.25;64.02;101906.75;84573;1335;22577;-74
2022/04/17 00:36:48;;;;;;;;;;;;;;;-0.30;64.37;101910.20;84557;1333;22578;-75
2022/04/17 00:38:55;;;;;;;;;;;;;;;-0.34;64.70;101909.20;84577;1332;22584;-74
2022/04/17 00:41:02;;;;;;;;;;;;;;;-0.39;64.43;101909.92;84549;1331;22735;-74
2022/04/17 00:43:25;;;;;;;;;;;;;;;-0.43;64.60;101910.81;84576;1333;24337;-75
2022/04/17 00:45:32;;;;;;;;;;;;;;;-0.50;64.96;101908.71;84552;1328;22583;-75
2022/04/17 00:47:42;;;;;;;;;;;;;;;-0.55;65.42;101909.76;83873;1333;1003001;-74
2022/04/17 00:49:53;;;;;;;;;;;;;;;-0.60;65.59;101907.19;84506;1333;22799;-74
2022/04/17 00:52:04;;;;;;;;;;;;;;;-0.65;65.79;101905.30;84546;1329;25454;-74
2022/04/17 00:54:15;;;;;;;;;;;;;;;-0.71;65.87;101900.67;84569;1335;22657;-71
2022/04/17 00:56:22;;;;;;;;;;;;;;;-0.76;65.80;101900.14;83856;1335;1003592;-73
2022/04/17 00:58:29;;;;;;;;;;;;;;;-0.78;66.32;101901.13;84541;1334;22570;-76
2022/04/17 01:00:39;;;;;;;;;;;;;;;-0.80;66.34;101903.64;84568;1332;24284;-74
2022/04/17 01:02:50;;;;;;;;;;;;;;;-0.85;66.25;101899.20;83809;1333;1003349;-74
2022/04/17 01:04:59;;;;;;;;;;;;;;;-0.87;66.48;101895.69;84525;1333;22568;-72
2022/04/17 01:07:10;;;;;;;;;;;;;;;-0.88;66.71;101897.17;84474;1332;24294;-73
2022/04/17 01:09:21;;;;;;;;;;;;;;;-0.93;66.75;101900.63;84558;1335;22866;-75
2022/04/17 01:11:28;;;;;;;;;;;;;;;-0.99;67.06;101901.10;84564;1331;23914;-74
2022/04/17 01:13:39;;;;;;;;;;;;;;;-1.04;67.10;101901.45;84590;1331;24243;-73
2022/04/17 01:15:47;;;;;;;;;;;;;;;-1.07;67.21;101900.33;84572;1328;22570;-72
2022/04/17 01:17:57;;;;;;;;;;;;;;;-1.10;67.61;101894.73;84548;1331;22573;-74
2022/04/17 01:20:04;;;;;;;;;;;;;;;-1.10;67.85;101895.41;84559;1333;24273;-74
2022/04/17 01:22:12;;;;;;;;;;;;;;;-1.11;67.97;101898.64;84546;1332;22596;-75
2022/04/17 01:26:58;;;;;;;;;;;;;;;-1.19;68.25;101891.69;84546;1332;24268;-73
2022/04/17 01:29:05;;;;;;;;;;;;;;;-1.23;68.46;101890.70;84536;1333;24218;-75
2022/04/17 01:31:15;;;;;;;;;;;;;;;-1.27;68.43;101885.26;84538;1333;22599;-75
2022/04/17 01:33:23;;;;;;;;;;;;;;;-1.32;68.51;101882.02;84560;1332;22789;-75
2022/04/17 01:35:33;;;;;;;;;;;;;;;-1.36;68.79;101884.63;84448;1333;22566;-75
2022/04/17 01:37:40;;;;;;;;;;;;;;;-1.39;68.89;101883.48;83864;1333;1002816;-72
2022/04/17 01:39:47;;;;;;;;;;;;;;;-1.42;69.06;101878.90;84594;1333;24223;-70
2022/04/17 01:41:55;;;;;;;;;;;;;;;-1.46;69.18;101877.92;84553;1328;22590;-73
2022/04/17 01:44:05;;;;;;;;;;;;;;;-1.50;69.58;101876.77;84590;1331;23314;-75
2022/04/17 01:46:16;;;;;;;;;;;;;;;-1.56;69.40;101875.87;83750;1338;1003944;-73
2022/04/17 01:48:23;;;;;;;;;;;;;;;-1.60;69.73;101872.98;84562;1333;22580;-74
2022/04/17 01:50:30;;;;;;;;;;;;;;;-1.64;69.92;101871.48;84530;1332;22570;-74
2022/04/17 01:52:37;;;;;;;;;;;;;;;-1.67;69.97;101872.38;84564;1333;24274;-72
2022/04/17 01:54:44;;;;;;;;;;;;;;;-1.68;69.97;101871.33;83819;1330;1003693;-72
2022/04/17 01:56:54;;;;;;;;;;;;;;;-1.67;70.15;101867.96;84564;1333;22779;-71
2022/04/17 01:59:02;;;;;;;;;;;;;;;-1.66;70.44;101868.33;84547;1335;22622;-72
2022/04/17 02:01:12;;;;;;;;;;;;;;;-1.67;70.47;101863.83;83856;1328;1003201;-72
2022/04/17 02:03:19;;;;;;;;;;;;;;;-1.68;70.62;101865.66;84510;1332;23939;-72
2022/04/17 02:05:26;;;;;;;;;;;;;;;-1.69;70.89;101865.12;84552;1333;25251;-73
2022/04/17 02:07:35;;;;;;;;;;;;;;;-1.70;71.14;101860.81;83838;1332;1003567;-72
2022/04/17 02:09:42;;;;;;;;;;;;;;;-1.71;71.19;101862.84;83841;1333;1003197;-73
2022/04/17 02:11:55;;;;;;;;;;;;;;;-1.73;71.17;101861.92;84545;1328;25564;-72
2022/04/17 02:14:05;;;;;;;;;;;;;;;-1.72;71.36;101861.42;84507;1329;22583;-75
2022/04/17 02:16:12;;;;;;;;;;;;;;;-1.71;71.52;101860.80;84437;1333;22567;-74
2022/04/17 02:18:24;;;;;;;;;;;;;;;-1.66;71.43;101862.15;84575;1333;24287;-74
2022/04/17 02:20:34;;;;;;;;;;;;;;;-1.62;71.40;101862.33;84556;1331;22562;-75
2022/04/17 02:22:42;;;;;;;;;;;;;;;-1.61;71.25;101861.65;84555;1332;23954;-73
2022/04/17 02:24:49;;;;;;;;;;;;;;;-1.62;71.34;101862.81;84550;1329;23970;-71
2022/04/17 02:26:56;;;;;;;;;;;;;;;-1.63;71.20;101861.05;84533;1332;22577;-71
2022/04/17 02:29:06;;;;;;;;;;;;;;;-1.64;70.89;101861.70;84567;1333;24248;-72
2022/04/17 02:31:14;;;;;;;;;;;;;;;-1.66;71.08;101862.85;84541;1326;22571;-75
2022/04/17 02:33:21;;;;;;;;;;;;;;;-1.67;71.64;101860.23;84454;1334;22622;-74
2022/04/17 02:35:28;;;;;;;;;;;;;;;-1.70;71.51;101859.46;84551;1332;24243;-74
2022/04/17 02:37:38;;;;;;;;;;;;;;;-1.71;71.65;101859.40;84460;1331;22622;-74
2022/04/17 02:39:45;;;;;;;;;;;;;;;-1.75;71.80;101860.80;84563;1333;22590;-74
2022/04/17 02:41:52;;;;;;;;;;;;;;;-1.79;71.87;101857.57;84567;1333;22565;-75
2022/04/17 02:43:59;;;;;;;;;;;;;;;-1.82;71.98;101857.48;84484;1333;22569;-71
2022/04/17 02:46:10;;;;;;;;;;;;;;;-1.85;72.12;101857.54;84542;1332;22667;-71
2022/04/17 02:48:20;;;;;;;;;;;;;;;-1.87;72.17;101858.48;84559;1329;24285;-74
2022/04/17 02:50:27;;;;;;;;;;;;;;;-1.90;72.24;101856.84;84470;1333;22881;-74
2022/04/17 02:52:34;;;;;;;;;;;;;;;-1.93;72.46;101858.77;84580;1332;22713;-72
2022/04/17 02:54:44;;;;;;;;;;;;;;;-1.95;72.34;101855.80;84438;1336;22681;-72
2022/04/17 02:56:54;;;;;;;;;;;;;;;-1.97;72.52;101853.17;84547;1333;22629;-70
2022/04/17 02:59:01;;;;;;;;;;;;;;;-1.98;72.50;101851.75;84565;1335;22655;-72
2022/04/17 03:06:04;;;;;;;;;;;;;;;-1.94;73.05;101847.46;84533;1332;22581;-71
2022/04/17 03:08:15;;;;;;;;;;;;;;;-1.90;73.25;101845.39;84522;1333;23863;-72
2022/04/17 03:10:23;;;;;;;;;;;;;;;-1.86;73.14;101845.55;84545;1334;25317;-72
2022/04/17 03:12:30;;;;;;;;;;;;;;;-1.80;73.70;101849.48;84549;1335;22591;-72
2022/04/17 03:14:40;;;;;;;;;;;;;;;-1.74;73.61;101847.66;84552;1331;22807;-71
2022/04/17 03:16:50;;;;;;;;;;;;;;;-1.69;73.55;101848.36;84505;1328;22564;-72
2022/04/17 03:18:58;;;;;;;;;;;;;;;-1.63;73.56;101848.90;84504;1333;23368;-72
2022/04/17 03:21:05;;;;;;;;;;;;;;;-1.59;73.44;101847.17;84554;1332;22597;-72
2022/04/17 03:23:15;;;;;;;;;;;;;;;-1.56;73.45;101847.81;84559;1331;22578;-73
2022/04/17 03:25:22;;;;;;;;;;;;;;;-1.53;73.14;101849.41;84515;1333;22587;-72
2022/04/17 03:27:29;;;;;;;;;;;;;;;-1.54;73.18;101849.58;84547;1337;23994;-72
2022/04/17 03:29:40;;;;;;;;;;;;;;;-1.54;73.36;101851.80;84322;1328;265074;-71
2022/04/17 03:31:48;;;;;;;;;;;;;;;-1.54;73.59;101855.39;84466;1334;22783;-73
2022/04/17 03:33:58;;;;;;;;;;;;;;;-1.54;73.75;101855.55;84521;1333;22571;-73
2022/04/17 03:36:07;;;;;;;;;;;;;;;-1.54;73.53;101860.33;84507;1333;22641;-73
2022/04/17 03:38:14;;;;;;;;;;;;;;;-1.54;73.68;101859.30;84448;1335;22565;-75
2022/04/17 03:40:21;;;;;;;;;;;;;;;-1.53;73.94;101861.91;84524;1330;22571;-75
2022/04/17 03:42:32;;;;;;;;;;;;;;;-1.49;73.75;101860.17;83797;1332;1003906;-72
2022/04/17 03:44:40;;;;;;;;;;;;;;;-1.47;73.91;101864.38;84513;1333;22604;-72
2022/04/17 03:46:49;;;;;;;;;;;;;;;-1.42;74.06;101856.98;84506;1336;25345;-72
2022/04/17 03:48:56;;;;;;;;;;;;;;;-1.37;74.25;101861.27;84502;1332;26491;-75
2022/04/17 03:51:03;;;;;;;;;;;;;;;-1.32;74.18;101857.34;84508;1333;24295;-73
2022/04/17 03:53:10;;;;;;;;;;;;;;;-1.27;74.10;101857.69;84522;1332;25624;-75
2022/04/17 03:55:21;;;;;;;;;;;;;;;-1.21;74.35;101855.99;84494;1333;22885;-74
2022/04/17 03:57:29;;;;;;;;;;;;;;;-1.17;74.29;101853.27;84533;1333;22593;-71
2022/04/17 03:59:37;;;;;;;;;;;;;;;-1.12;73.95;101854.09;84491;1333;22615;-72
2022/04/17 04:01:46;;;;;;;;;;;;;;;-1.09;73.84;101855.02;84514;1333;22843;-72
2022/04/17 04:03:54;;;;;;;;;;;;;;;-1.06;73.84;101854.80;84532;1332;24379;-74
2022/04/17 04:06:01;;;;;;;;;;;;;;;-1.03;73.80;101856.11;84472;1333;22623;-76
2022/04/17 04:08:10;;;;;;;;;;;;;;;-0.99;73.83;101858.61;84488;1333;22630;-72
2022/04/17 04:10:17;;;;;;;;;;;;;;;-0.96;74.07;101857.71;84514;1333;26570;-72
2022/04/17 04:12:26;;;;;;;;;;;;;;;-0.89;74.24;101858.95;84473;1333;22730;-73
2022/04/17 04:14:33;;;;;;;;;;;;;;;-0.77;74.58;101852.84;84469;1336;22690;-71
2022/04/17 04:16:40;;;;;;;;;;;;;;;-0.54;74.53;101850.12;84504;1332;23069;-72
2022/04/17 04:18:48;;;;;;;;;;;;;;;-0.32;74.64;101852.02;84479;1333;22623;-75
2022/04/17 04:20:58;;;;;;;;;;;;;;;-0.16;74.22;101852.83;83808;1333;1003102;-73
2022/04/17 04:23:05;;;;;;;;;;;;;;;-0.02;73.94;101849.30;84505;1332;22567;-72
2022/04/17 04:25:13;;;;;;;;;;;;;;;0.18;74.02;101850.21;84488;1333;22582;-71
2022/04/17 04:29:45;;;;;;;;;;;;;;;1.02;76.33;101843.98;83810;1333;1003025;-72
2022/04/17 04:31:52;;;;;;;;;;;;;;;2.22;79.24;101840.45;84495;1333;22587;-72
2022/04/17 04:33:59;;;;;;;;;;;;;;;3.40;76.85;101838.39;84445;1333;24256;-76
2022/04/17 04:36:09;;;;;;;;;;;;;;;4.23;73.81;101839.48;84520;1328;22608;-76
2022/04/17 04:38:17;;;;;;;;;;;;;;;5.00;70.72;101836.95;84487;1333;22611;-71
2022/04/17 04:40:24;;;;;;;;;;;;;;;5.73;67.70;101841.45;84505;1333;22587;-69
2022/04/17 04:42:31;;;;;;;;;;;;;;;6.32;65.30;101841.05;84493;1336;22576;-75
2022/04/17 04:44:38;;;;;;;;;;;;;;;6.81;62.24;101836.63;84508;1333;23880;-76
2022/04/17 04:46:45;;;;;;;;;;;;;;;6.97;60.13;101838.90;84519;1333;24390;-74
2022/04/17 04:51:14;;;;;;;;;;;;;;;7.14;58.10;101837.69;84273;1336;22577;-76
2022/04/17 04:53:21;;;;;;;;;;;;;;;7.00;56.64;101838.20;84311;1336;22567;-76
2022/04/17 04:55:29;;;;;;;;;;;;;;;6.87;56.74;101840.46;84261;1337;22586;-75
2022/04/17 04:57:37;;;;;;;;;;;;;;;6.77;56.72;101845.83;84467;1336;22624;-72
2022/04/17 04:59:45;;;;;;;;;;;;;;;6.63;56.46;101844.41;84532;1328;22974;-73
2022/04/17 05:01:52;;;;;;;;;;;;;;;6.63;56.34;101843.73;84500;1336;22857;-72
2022/04/17 05:04:00;;;;;;;;;;;;;;;6.53;55.83;101845.95;84478;1333;22586;-76
2022/04/17 05:06:12;;;;;;;;;;;;;;;6.29;55.59;101847.10;84520;1332;22939;-77
2022/04/17 05:08:20;;;;;;;;;;;;;;;6.01;55.99;101847.34;84523;1333;24007;-72
2022/04/17 05:10:27;;;;;;;;;;;;;;;5.90;57.22;101850.37;83806;1336;1003176;-72
2022/04/17 05:12:36;;;;;;;;;;;;;;;6.11;57.28;101849.12;84516;1333;22896;-75
2022/04/17 05:14:45;;;;;;;;;;;;;;;5.96;56.67;101848.02;84448;1335;22612;-75
2022/04/17 05:16:52;;;;;;;;;;;;;;;5.93;56.79;101846.27;84498;1331;22573;-75
2022/04/17 05:19:24;;;;;;;;;;;;;;;6.28;57.50;101849.16;84541;1331;22631;-75
2022/04/17 05:21:32;;;;;;;;;;;;;;;6.73;56.64;101843.22;84358;1336;23898;-76
2022/04/17 05:23:43;;;;;;;;;;;;;;;6.74;55.45;101846.15;84509;1335;24255;-72
2022/04/17 05:25:53;;;;;;;;;;;;;;;6.87;55.79;101844.09;84501;1333;24340;-73
2022/04/17 05:28:00;;;;;;;;;;;;;;;7.54;56.44;101844.40;84498;1330;22896;-73
2022/04/17 05:30:09;;;;;;;;;;;;;;;8.43;55.16;101839.74;84540;1333;22587;-72
2022/04/17 05:32:20;;;;;;;;;;;;;;;9.15;54.34;101836.29;84540;1334;22582;-75
2022/04/17 05:34:27;;;;;;;;;;;;;;;10.20;52.22;101833.94;84444;1333;24009;-73
2022/04/17 05:36:34;;;;;;;;;;;;;;;11.09;50.08;101833.15;84530;1333;25292;-71
2022/04/17 05:38:44;;;;;;;;;;;;;;;11.86;47.77;101831.94;84519;1334;22618;-82
2022/04/17 05:40:52;;;;;;;;;;;;;;;12.59;46.03;101827.93;84453;1333;22584;-71
2022/04/17 05:43:00;;;;;;;;;;;;;;;13.28;44.50;101823.45;84552;1332;24619;-78
2022/04/17 05:45:08;;;;;;;;;;;;;;;13.87;42.93;101823.45;84536;1328;22597;-79
2022/04/17 05:47:19;;;;;;;;;;;;;;;14.43;41.17;101824.59;84529;1333;22570;-79
2022/04/17 05:49:26;;;;;;;;;;;;;;;14.98;40.05;101822.84;84542;1328;23003;-71
2022/04/17 05:51:33;;;;;;;;;;;;;;;15.37;38.72;101825.40;84517;1333;22805;-72
2022/04/17 05:53:43;;;;;;;;;;;;;;;15.48;37.74;101822.55;84530;1333;24268;-80
2022/04/17 05:55:53;;;;;;;;;;;;;;;15.19;37.23;101824.08;84534;1333;22591;-82
2022/04/17 05:58:03;;;;;;;;;;;;;;;14.88;37.56;101822.83;84507;1334;22681;-73
2022/04/17 06:00:16;;;;;;;;;;;;;;;14.52;37.44;101824.32;84536;1332;25679;-73
2022/04/17 06:02:27;;;;;;;;;;;;;;;14.15;37.85;101822.79;84514;1328;22724;-73
2022/04/17 06:04:34;;;;;;;;;;;;;;;13.72;38.32;101828.41;84520;1333;22770;-71
2022/04/17 06:06:42;;;;;;;;;;;;;;;13.29;38.67;101832.21;84494;1331;22600;-74
2022/04/17 06:08:52;;;;;;;;;;;;;;;12.97;39.44;101828.61;84510;1328;22703;-76
2022/04/17 06:11:01;;;;;;;;;;;;;;;12.74;39.68;101825.66;84557;1334;22638;-74
2022/04/17 06:13:11;;;;;;;;;;;;;;;12.62;40.16;101826.98;84510;1337;22573;-74
2022/04/17 06:15:22;;;;;;;;;;;;;;;12.66;40.12;101831.45;84543;1328;22955;-78
2022/04/17 06:17:38;;;;;;;;;;;;;;;12.63;40.19;101834.67;84493;1332;22639;-75
2022/04/17 06:19:45;;;;;;;;;;;;;;;12.60;40.14;101833.52;84501;1334;24250;-75
2022/04/17 06:21:56;;;;;;;;;;;;;;;12.68;40.46;101837.70;84541;1336;23043;-76
2022/04/17 06:24:06;;;;;;;;;;;;;;;12.88;40.15;101838.64;84556;1333;22598;-72
2022/04/17 06:26:13;;;;;;;;;;;;;;;13.15;39.90;101843.59;84527;1333;26101;-75
2022/04/17 06:28:20;;;;;;;;;;;;;;;13.24;39.54;101843.20;84553;1333;22868;-76
2022/04/17 06:30:31;;;;;;;;;;;;;;;13.22;39.23;101839.06;84512;1333;22596;-79
2022/04/17 06:32:38;;;;;;;;;;;;;;;13.21;39.19;101840.48;84486;1330;22661;-76
2022/04/17 06:34:45;;;;;;;;;;;;;;;13.09;38.76;101837.59;84502;1333;25435;-77
2022/04/17 06:36:52;;;;;;;;;;;;;;;12.84;39.20;101836.09;84525;1332;22607;-77
2022/04/17 06:38:59;;;;;;;;;;;;;;;12.62;39.75;101834.70;84523;1335;25305;-73
2022/04/17 06:41:07;;;;;;;;;;;;;;;12.55;40.15;101835.20;84494;1333;22562;-71
2022/04/17 06:43:14;;;;;;;;;;;;;;;12.54;40.24;101833.84;84518;1333;24172;-73
2022/04/17 06:45:21;;;;;;;;;;;;;;;12.58;40.25;101833.02;84536;1333;22590;-75
2022/04/17 06:47:29;;;;;;;;;;;;;;;12.69;40.23;101836.98;84528;1333;23946;-76
2022/04/17 06:49:36;;;;;;;;;;;;;;;12.82;40.28;101840.02;84507;1333;24245;-76
2022/04/17 06:51:59;;;;;;;;;;;;;;;12.96;39.94;101839.14;84518;1332;22656;-76
2022/04/17 06:54:08;;;;;;;;;;;;;;;13.20;39.91;101836.61;84489;1331;22599;-74
2022/04/17 06:56:18;;;;;;;;;;;;;;;13.67;39.87;101834.35;84509;1333;22679;-75
2022/04/17 06:58:25;;;;;;;;;;;;;;;14.41;38.93;101828.50;84532;1333;22585;-76
2022/04/17 07:00:32;;;;;;;;;;;;;;;14.98;37.48;101827.97;84527;1330;22627;-75
2022/04/17 07:02:40;;;;;;;;;;;;;;;15.48;36.79;101829.77;84506;1335;25490;-70
2022/04/17 07:04:46;;;;;;;;;;;;;;;16.11;35.94;101829.05;84525;1334;22849;-73
2022/04/17 07:06:54;;;;;;;;;;;;;;;16.65;35.28;101826.45;84472;1335;22575;-72
2022/04/17 07:09:01;;;;;;;;;;;;;;;17.36;33.70;101826.66;84535;1333;25269;-74
2022/04/17 07:11:09;;;;;;;;;;;;;;;17.84;32.91;101827.93;84462;1334;22577;-72
2022/04/17 07:13:19;;;;;;;;;;;;;;;18.24;32.09;101823.64;84523;1336;23792;-82
2022/04/17 07:15:27;;;;;;;;;;;;;;;18.39;31.28;101827.34;84525;1333;22953;-77
2022/04/17 07:17:38;;;;;;;;;;;;;;;18.25;30.84;101824.33;84536;1333;24294;-83
2022/04/17 07:19:45;;;;;;;;;;;;;;;18.00;31.08;101825.46;84572;1332;22620;-80
2022/04/17 07:21:53;;;;;;;;;;;;;;;17.83;31.25;101826.61;84544;1328;22621;-81
2022/04/17 07:24:01;;;;;;;;;;;;;;;17.90;31.08;101823.79;84505;1333;22596;-84
2022/04/17 07:26:13;;;;;;;;;;;;;;;17.82;30.94;101826.46;84537;1332;25461;-77
2022/04/17 07:28:23;;;;;;;;;;;;;;;17.63;31.13;101824.66;84440;1335;22559;-70
2022/04/17 07:30:33;;;;;;;;;;;;;;;17.63;31.57;101825.17;84434;1335;25253;-71
2022/04/17 07:32:40;;;;;;;;;;;;;;;17.91;31.21;101823.73;84539;1328;22589;-81
2022/04/17 07:34:51;;;;;;;;;;;;;;;18.25;31.07;101823.58;84509;1332;22585;-88
2022/04/17 07:36:59;;;;;;;;;;;;;;;18.67;30.40;101819.99;84532;1333;22595;-77
2022/04/17 07:39:09;;;;;;;;;;;;;;;19.00;29.74;101822.96;84512;1333;25349;-81
2022/04/17 07:41:16;;;;;;;;;;;;;;;19.39;29.45;101825.73;84511;1332;22592;-78
2022/04/17 07:43:23;;;;;;;;;;;;;;;19.82;29.32;101823.20;84519;1334;22592;-73
2022/04/17 07:45:31;;;;;;;;;;;;;;;20.30;28.22;101817.35;84520;1333;22723;-74
2022/04/17 07:47:42;;;;;;;;;;;;;;;20.46;27.88;101818.05;84489;1336;22627;-72
2022/04/17 07:49:50;;;;;;;;;;;;;;;20.74;27.69;101820.23;84520;1333;22663;-71
2022/04/17 07:51:58;;;;;;;;;;;;;;;21.13;27.29;101819.53;84516;1333;22981;-72
2022/04/17 07:54:06;;;;;;;;;;;;;;;21.45;26.55;101812.12;84496;1330;22738;-82
2022/04/17 07:56:14;;;;;;;;;;;;;;;21.57;26.32;101808.52;84565;1333;22638;-85
2022/04/17 07:58:29;;;;;;;;;;;;;;;21.92;26.02;101807.41;84573;1334;22574;-77
2022/04/17 08:00:46;;;;;;;;;;;;;;;21.86;25.67;101804.27;84515;1333;22565;-80
2022/04/17 08:02:55;;;;;;;;;;;;;;;21.83;25.47;101804.48;84547;1332;25190;-73
2022/04/17 08:05:04;;;;;;;;;;;;;;;21.77;25.39;101802.73;84501;1332;23114;-74
2022/04/17 08:07:12;;;;;;;;;;;;;;;21.77;25.54;101802.19;84465;1335;22577;-74
2022/04/17 08:09:20;;;;;;;;;;;;;;;21.88;25.16;101805.23;84557;1334;25473;-72
2022/04/17 08:11:28;;;;;;;;;;;;;;;22.21;25.63;101802.39;84512;1333;22571;-84
2022/04/17 08:13:36;;;;;;;;;;;;;;;22.62;24.98;101801.36;84501;1330;22575;-74
2022/04/17 08:15:43;;;;;;;;;;;;;;;22.62;24.37;101804.01;84515;1331;22830;-74
2022/04/17 08:17:50;;;;;;;;;;;;;;;22.48;24.22;101806.20;84515;1333;23917;-86
2022/04/17 08:19:59;;;;;;;;;;;;;;;22.44;24.41;101804.52;84571;1333;23871;-83
2022/04/17 08:22:06;;;;;;;;;;;;;;;22.66;24.36;101802.14;84542;1333;25423;-85
2022/04/17 08:24:14;;;;;;;;;;;;;;;23.21;24.12;101800.11;84531;1333;22694;-83
2022/04/17 08:26:22;;;;;;;;;;;;;;;23.52;23.25;101800.04;84521;1332;24423;-78
2022/04/17 08:28:29;;;;;;;;;;;;;;;23.62;23.43;101798.83;84528;1330;22862;-82
2022/04/17 08:30:37;;;;;;;;;;;;;;;23.82;22.95;101798.89;84454;1335;22607;-84
2022/04/17 08:32:45;;;;;;;;;;;;;;;23.82;23.10;101798.02;84536;1328;23962;-75
2022/04/17 08:34:52;;;;;;;;;;;;;;;23.81;22.47;101797.36;84517;1328;25953;-72
2022/04/17 08:37:00;;;;;;;;;;;;;;;23.87;22.37;101795.16;84520;1335;25434;-74
2022/04/17 08:39:08;;;;;;;;;;;;;;;23.94;22.16;101793.19;84539;1336;22597;-87
2022/04/17 08:41:18;;;;;;;;;;;;;;;24.11;22.37;101793.18;84512;1332;22630;-84
2022/04/17 08:43:25;;;;;;;;;;;;;;;24.32;22.25;101788.30;84524;1331;22822;-85
2022/04/17 08:45:32;;;;;;;;;;;;;;;24.30;21.63;101787.75;84462;1336;22722;-80
2022/04/17 08:47:40;;;;;;;;;;;;;;;24.11;21.18;101786.33;84509;1332;22635;-78
2022/04/17 08:49:48;;;;;;;;;;;;;;;23.76;21.04;101791.81;84533;1336;22586;-79
2022/04/17 08:51:56;;;;;;;;;;;;;;;23.61;21.85;101785.04;84501;1333;22927;-77
2022/04/17 08:54:03;;;;;;;;;;;;;;;23.75;22.48;101782.95;84507;1333;22713;-79
2022/04/17 08:56:10;;;;;;;;;;;;;;;23.67;22.15;101778.55;84520;1333;22574;-81
2022/04/17 08:58:18;;;;;;;;;;;;;;;23.67;22.24;101776.27;84513;1332;22707;-79
2022/04/17 09:00:25;;;;;;;;;;;;;;;23.79;22.06;101775.94;84517;1336;22594;-80
2022/04/17 09:02:32;;;;;;;;;;;;;;;23.78;21.89;101772.94;84520;1329;22643;-73
2022/04/17 09:04:40;;;;;;;;;;;;;;;23.70;22.49;101763.18;84522;1333;22572;-74
2022/04/17 09:06:48;;;;;;;;;;;;;;;23.97;22.62;101755.21;84529;1333;25317;-71
2022/04/17 09:09:02;;;;;;;;;;;;;;;24.02;21.84;101754.34;84533;1333;22579;-74
2022/04/17 09:11:12;;;;;;;;;;;;;;;23.99;21.54;101750.80;84494;1332;23911;-74
2022/04/17 09:13:20;;;;;;;;;;;;;;;23.90;21.60;101748.58;84488;1333;22673;-80
2022/04/17 09:15:28;;;;;;;;;;;;;;;23.71;21.77;101744.06;84502;1332;22871;-81
2022/04/17 09:17:36;;;;;;;;;;;;;;;23.56;22.10;101745.30;84540;1333;22582;-74
2022/04/17 09:19:44;;;;;;;;;;;;;;;23.64;22.25;101741.36;84443;1336;25249;-73
2022/04/17 09:21:58;;;;;;;;;;;;;;;23.73;22.16;101737.50;84524;1334;24099;-73
2022/04/17 09:24:21;;;;;;;;;;;;;;;23.72;22.15;101734.23;84526;1333;22567;-73
2022/04/17 09:26:29;;;;;;;;;;;;;;;23.55;22.31;101732.15;84499;1333;22572;-73
2022/04/17 09:28:37;;;;;;;;;;;;;;;23.44;22.24;101731.70;84517;1330;22912;-84
2022/04/17 09:30:48;;;;;;;;;;;;;;;23.05;22.10;101729.13;84496;1331;22736;-79
2022/04/17 09:32:59;;;;;;;;;;;;;;;22.81;22.55;101723.61;84511;1336;22588;-81
2022/04/17 09:35:09;;;;;;;;;;;;;;;22.69;22.26;101722.96;84547;1328;22698;-83
2022/04/17 09:37:19;;;;;;;;;;;;;;;22.37;23.30;101717.33;84531;1333;22565;-82
2022/04/17 09:39:34;;;;;;;;;;;;;;;22.12;23.00;101712.50;84538;1336;24293;-79
2022/04/17 09:41:58;;;;;;;;;;;;;;;21.63;23.29;101712.66;84500;1330;22810;-80
2022/04/17 09:44:11;;;;;;;;;;;;;;;20.95;23.41;101710.77;84526;1332;22586;-80
2022/04/17 09:46:21;;;;;;;;;;;;;;;20.36;23.74;101707.84;84547;1330;22604;-79
2022/04/17 09:48:36;;;;;;;;;;;;;;;19.85;24.17;101705.77;84534;1333;25488;-78
2022/04/17 09:50:56;;;;;;;;;;;;;;;19.40;24.56;101707.33;84607;1329;22582;-79
2022/04/17 09:53:13;;;;;;;;;;;;;;;19.18;25.49;101702.46;84426;1336;22580;-72
2022/04/17 09:55:28;;;;;;;;;;;;;;;18.81;25.99;101699.80;84542;1336;25457;-71
2022/04/17 09:57:40;;;;;;;;;;;;;;;18.64;27.08;101701.00;84508;1328;25649;-80
2022/04/17 09:59:47;;;;;;;;;;;;;;;18.59;26.02;101700.72;84501;1333;22567;-81
2022/04/17 10:01:57;;;;;;;;;;;;;;;18.42;25.15;101695.38;84510;1333;22646;-83
2022/04/17 10:04:08;;;;;;;;;;;;;;;18.15;24.97;101688.97;84498;1336;22645;-84
2022/04/17 10:06:26;;;;;;;;;;;;;;;17.98;25.81;101681.64;84536;1328;22607;-75
2022/04/17 10:08:38;;;;;;;;;;;;;;;17.90;26.15;101678.66;84553;1333;22570;-72
2022/04/17 10:10:51;;;;;;;;;;;;;;;17.88;26.30;101673.98;84554;1336;22562;-72
2022/04/17 10:13:02;;;;;;;;;;;;;;;17.93;25.75;101667.06;84535;1336;25661;-78
2022/04/17 10:15:13;;;;;;;;;;;;;;;17.89;26.43;101666.89;84508;1336;22560;-85
2022/04/17 10:17:24;;;;;;;;;;;;;;;17.90;26.55;101665.80;84539;1333;22594;-81
2022/04/17 10:19:46;;;;;;;;;;;;;;;17.88;26.40;101664.83;84551;1337;23833;-80
2022/04/17 10:22:05;;;;;;;;;;;;;;;17.39;25.68;101659.14;84495;1333;25432;-75
2022/04/17 10:24:16;;;;;;;;;;;;;;;16.80;26.11;101659.48;84581;1333;26601;-79
2022/04/17 10:26:26;;;;;;;;;;;;;;;16.28;26.80;101658.31;84540;1334;25246;-73
2022/04/17 10:28:38;;;;;;;;;;;;;;;15.89;27.28;101651.77;84580;1333;26599;-70
2022/04/17 10:30:57;;;;;;;;;;;;;;;15.60;27.57;101649.04;84524;1333;22624;-73
2022/04/17 10:33:45;;;;;;;;;;;;;;;15.33;27.70;101641.98;84429;1336;22584;-77
2022/04/17 10:36:19;;;;;;;;;;;;;;;15.16;26.32;101633.48;84077;1341;22623;-79
2022/04/17 10:38:45;;;;;;;;;;;;;;;15.14;27.07;101625.46;84057;1342;22772;-73
2022/04/17 10:40:55;;;;;;;;;;;;;;;15.16;26.95;101627.81;84070;1341;24249;-74
2022/04/17 10:43:03;;;;;;;;;;;;;;;14.96;26.87;101622.23;84066;1341;22722;-79
2022/04/17 10:45:12;;;;;;;;;;;;;;;15.01;27.11;101614.52;83878;1339;22589;-79
2022/04/17 10:47:27;;;;;;;;;;;;;;;14.85;26.85;101616.66;84089;1341;22562;-76
2022/04/17 10:49:56;;;;;;;;;;;;;;;14.50;26.76;101622.63;84099;1344;22588;-80
2022/04/17 10:52:04;;;;;;;;;;;;;;;14.20;27.69;101621.17;84073;1341;24271;-79
2022/04/17 10:54:20;;;;;;;;;;;;;;;14.14;28.58;101615.92;84265;1333;22704;-82
2022/04/17 10:56:36;;;;;;;;;;;;;;;14.16;28.89;101614.07;84439;1334;22570;-82
2022/04/17 10:58:52;;;;;;;;;;;;;;;14.21;28.69;101611.31;84456;1335;23398;-74
2022/04/17 11:00:59;;;;;;;;;;;;;;;14.16;28.10;101605.33;84498;1332;22574;-74
2022/04/17 11:03:12;;;;;;;;;;;;;;;13.87;28.45;101602.59;84469;1333;22846;-79
2022/04/17 11:06:08;;;;;;;;;;;;;;;13.71;27.97;101602.92;84503;1336;25615;-78
2022/04/17 11:08:22;;;;;;;;;;;;;;;13.42;27.82;101603.10;84552;1333;22560;-73
2022/04/17 11:10:32;;;;;;;;;;;;;;;13.20;27.99;101598.30;84529;1333;24268;-71
2022/04/17 11:12:51;;;;;;;;;;;;;;;13.06;28.24;101595.39;84504;1334;25953;-79
2022/04/17 11:15:24;;;;;;;;;;;;;;;12.93;29.09;101589.27;84489;1333;22576;-78
2022/04/17 11:17:34;;;;;;;;;;;;;;;13.06;29.16;101584.17;84465;1334;23926;-77
2022/04/17 11:19:43;;;;;;;;;;;;;;;13.25;28.27;101574.88;84525;1333;24274;-78